sensor_id;sensor_type;location;lat;lon;timestamp;temperature;humidity
25512;DHT22;13414;44.534;18.700;2023-02-26T00:00:30;4.90;99.90
25512;DHT22;13414;44.534;18.700;2023-02-26T00:02:57;4.80;99.90
25512;DHT22;13414;44.534;18.700;2023-02-26T00:05:25;4.90;99.90
25512;DHT22;13414;44.534;18.700;2023-02-26T00:07:54;4.90;99.90
25512;DHT22;13414;44.534;18.700;2023-02-26T00:10:21;4.80;99.90
25512;DHT22;13414;44.534;18.700;2023-02-26T00:12:49;4.80;99.90
25512;DHT22;13414;44.534;18.700;2023-02-26T00:15:17;4.80;99.90
25512;DHT22;13414;44.534;18.700;2023-02-26T00:17:50;4.90;99.90
25512;DHT22;13414;44.534;18.700;2023-02-26T00:20:20;4.90;99.90
25512;DHT22;13414;44.534;18.700;2023-02-26T00:22:48;5.00;99.90
25512;DHT22;13414;44.534;18.700;2023-02-26T00:25:18;5.10;99.90
25512;DHT22;13414;44.534;18.700;2023-02-26T00:27:46;5.10;99.90
25512;DHT22;13414;44.534;18.700;2023-02-26T00:30:14;4.90;99.90
25512;DHT22;13414;44.534;18.700;2023-02-26T00:32:42;4.70;99.90
25512;DHT22;13414;44.534;18.700;2023-02-26T00:35:12;4.60;99.90
25512;DHT22;13414;44.534;18.700;2023-02-26T00:38:02;4.50;99.90
25512;DHT22;13414;44.534;18.700;2023-02-26T00:40:39;4.50;99.90
25512;DHT22;13414;44.534;18.700;2023-02-26T00:43:13;4.40;99.90
25512;DHT22;13414;44.534;18.700;2023-02-26T00:45:44;4.40;99.90
25512;DHT22;13414;44.534;18.700;2023-02-26T00:48:31;4.30;99.90
25512;DHT22;13414;44.534;18.700;2023-02-26T00:51:07;4.30;99.90
25512;DHT22;13414;44.534;18.700;2023-02-26T00:53:45;4.30;99.90
25512;DHT22;13414;44.534;18.700;2023-02-26T00:56:15;4.30;99.90
25512;DHT22;13414;44.534;18.700;2023-02-26T00:58:42;4.30;99.90
25512;DHT22;13414;44.534;18.700;2023-02-26T01:01:10;4.20;99.90
25512;DHT22;13414;44.534;18.700;2023-02-26T01:03:38;4.20;99.90
25512;DHT22;13414;44.534;18.700;2023-02-26T01:06:10;4.20;99.90
25512;DHT22;13414;44.534;18.700;2023-02-26T01:08:43;4.20;99.90
25512;DHT22;13414;44.534;18.700;2023-02-26T01:11:51;4.10;99.90
25512;DHT22;13414;44.534;18.700;2023-02-26T01:14:19;4.10;99.90
25512;DHT22;13414;44.534;18.700;2023-02-26T01:16:52;4.20;99.90
25512;DHT22;13414;44.534;18.700;2023-02-26T01:19:29;4.10;99.90
25512;DHT22;13414;44.534;18.700;2023-02-26T01:22:03;4.20;99.90
25512;DHT22;13414;44.534;18.700;2023-02-26T01:24:34;4.30;99.90
25512;DHT22;13414;44.534;18.700;2023-02-26T01:27:05;4.30;99.90
25512;DHT22;13414;44.534;18.700;2023-02-26T01:29:33;4.30;99.90
25512;DHT22;13414;44.534;18.700;2023-02-26T01:32:05;4.20;99.90
25512;DHT22;13414;44.534;18.700;2023-02-26T01:34:38;4.20;99.90
25512;DHT22;13414;44.534;18.700;2023-02-26T01:37:14;4.20;99.90
25512;DHT22;13414;44.534;18.700;2023-02-26T01:39:49;4.20;99.90
25512;DHT22;13414;44.534;18.700;2023-02-26T01:42:23;4.20;99.90
25512;DHT22;13414;44.534;18.700;2023-02-26T01:44:59;4.30;99.90
25512;DHT22;13414;44.534;18.700;2023-02-26T01:47:32;4.30;99.90
25512;DHT22;13414;44.534;18.700;2023-02-26T01:50:12;4.20;99.90
25512;DHT22;13414;44.534;18.700;2023-02-26T01:53:18;4.20;99.90
25512;DHT22;13414;44.534;18.700;2023-02-26T01:55:49;4.30;99.90
25512;DHT22;13414;44.534;18.700;2023-02-26T01:58:20;4.10;99.90
25512;DHT22;13414;44.534;18.700;2023-02-26T02:00:49;4.10;99.90
25512;DHT22;13414;44.534;18.700;2023-02-26T02:03:18;4.00;99.90
25512;DHT22;13414;44.534;18.700;2023-02-26T02:05:47;3.90;99.90
25512;DHT22;13414;44.534;18.700;2023-02-26T02:08:16;3.80;99.90
25512;DHT22;13414;44.534;18.700;2023-02-26T02:10:46;3.70;99.90
25512;DHT22;13414;44.534;18.700;2023-02-26T02:13:34;3.60;99.90
25512;DHT22;13414;44.534;18.700;2023-02-26T02:16:13;3.50;99.90
25512;DHT22;13414;44.534;18.700;2023-02-26T02:18:51;3.60;99.90
25512;DHT22;13414;44.534;18.700;2023-02-26T02:21:28;3.60;99.90
25512;DHT22;13414;44.534;18.700;2023-02-26T02:24:06;3.70;99.90
25512;DHT22;13414;44.534;18.700;2023-02-26T02:26:55;3.70;99.90
25512;DHT22;13414;44.534;18.700;2023-02-26T02:32:44;3.80;99.90
25512;DHT22;13414;44.534;18.700;2023-02-26T02:35:17;3.80;99.90
25512;DHT22;13414;44.534;18.700;2023-02-26T02:37:49;3.70;99.90
25512;DHT22;13414;44.534;18.700;2023-02-26T02:40:24;3.80;99.90
25512;DHT22;13414;44.534;18.700;2023-02-26T02:42:57;3.70;99.90
25512;DHT22;13414;44.534;18.700;2023-02-26T02:45:30;3.80;99.90
25512;DHT22;13414;44.534;18.700;2023-02-26T02:48:05;3.80;99.90
25512;DHT22;13414;44.534;18.700;2023-02-26T02:50:38;3.80;99.90
25512;DHT22;13414;44.534;18.700;2023-02-26T02:53:10;3.90;99.90
25512;DHT22;13414;44.534;18.700;2023-02-26T02:55:47;3.80;99.90
25512;DHT22;13414;44.534;18.700;2023-02-26T02:58:22;3.60;99.90
25512;DHT22;13414;44.534;18.700;2023-02-26T03:00:55;3.50;99.90
25512;DHT22;13414;44.534;18.700;2023-02-26T03:03:30;3.30;99.90
25512;DHT22;13414;44.534;18.700;2023-02-26T03:06:00;3.20;99.90
25512;DHT22;13414;44.534;18.700;2023-02-26T03:08:33;2.90;99.90
25512;DHT22;13414;44.534;18.700;2023-02-26T03:11:01;2.90;99.90
25512;DHT22;13414;44.534;18.700;2023-02-26T03:13:28;2.90;99.90
25512;DHT22;13414;44.534;18.700;2023-02-26T03:16:14;3.00;99.90
25512;DHT22;13414;44.534;18.700;2023-02-26T03:18:53;3.10;99.90
25512;DHT22;13414;44.534;18.700;2023-02-26T03:21:28;3.20;99.90
25512;DHT22;13414;44.534;18.700;2023-02-26T03:24:02;3.20;99.90
25512;DHT22;13414;44.534;18.700;2023-02-26T03:26:33;3.10;99.90
25512;DHT22;13414;44.534;18.700;2023-02-26T03:29:11;3.10;99.90
25512;DHT22;13414;44.534;18.700;2023-02-26T03:31:45;3.10;99.90
25512;DHT22;13414;44.534;18.700;2023-02-26T03:34:22;3.10;99.90
25512;DHT22;13414;44.534;18.700;2023-02-26T03:36:53;3.20;99.90
25512;DHT22;13414;44.534;18.700;2023-02-26T03:39:28;3.10;99.90
25512;DHT22;13414;44.534;18.700;2023-02-26T03:42:03;3.10;99.90
25512;DHT22;13414;44.534;18.700;2023-02-26T03:44:41;3.10;99.90
25512;DHT22;13414;44.534;18.700;2023-02-26T03:47:13;3.20;99.90
25512;DHT22;13414;44.534;18.700;2023-02-26T03:49:48;3.10;99.90
25512;DHT22;13414;44.534;18.700;2023-02-26T03:52:17;3.00;99.90
25512;DHT22;13414;44.534;18.700;2023-02-26T03:55:12;2.90;99.90
25512;DHT22;13414;44.534;18.700;2023-02-26T03:57:53;2.90;99.90
25512;DHT22;13414;44.534;18.700;2023-02-26T04:00:41;2.90;99.90
25512;DHT22;13414;44.534;18.700;2023-02-26T04:03:14;2.90;99.90
25512;DHT22;13414;44.534;18.700;2023-02-26T04:05:48;2.90;99.90
25512;DHT22;13414;44.534;18.700;2023-02-26T04:08:20;3.00;99.90
25512;DHT22;13414;44.534;18.700;2023-02-26T04:10:54;2.90;99.90
25512;DHT22;13414;44.534;18.700;2023-02-26T04:13:24;3.00;99.90
25512;DHT22;13414;44.534;18.700;2023-02-26T04:15:51;3.00;99.90
25512;DHT22;13414;44.534;18.700;2023-02-26T04:18:20;3.10;99.90
25512;DHT22;13414;44.534;18.700;2023-02-26T04:20:49;3.10;99.90
25512;DHT22;13414;44.534;18.700;2023-02-26T04:23:16;3.10;99.90
25512;DHT22;13414;44.534;18.700;2023-02-26T04:25:46;3.00;99.90
25512;DHT22;13414;44.534;18.700;2023-02-26T04:28:15;3.00;99.90
25512;DHT22;13414;44.534;18.700;2023-02-26T04:30:43;3.10;99.90
25512;DHT22;13414;44.534;18.700;2023-02-26T04:33:13;2.90;99.90
25512;DHT22;13414;44.534;18.700;2023-02-26T04:35:40;2.90;99.90
25512;DHT22;13414;44.534;18.700;2023-02-26T04:38:10;2.80;99.90
25512;DHT22;13414;44.534;18.700;2023-02-26T04:40:38;2.70;99.90
25512;DHT22;13414;44.534;18.700;2023-02-26T04:43:07;2.60;99.90
25512;DHT22;13414;44.534;18.700;2023-02-26T04:45:44;2.60;99.90
25512;DHT22;13414;44.534;18.700;2023-02-26T04:48:12;2.70;99.90
25512;DHT22;13414;44.534;18.700;2023-02-26T04:50:39;2.70;99.90
25512;DHT22;13414;44.534;18.700;2023-02-26T04:53:08;2.80;99.90
25512;DHT22;13414;44.534;18.700;2023-02-26T04:55:37;2.90;99.90
25512;DHT22;13414;44.534;18.700;2023-02-26T04:58:06;2.80;99.90
25512;DHT22;13414;44.534;18.700;2023-02-26T05:00:35;2.80;99.90
25512;DHT22;13414;44.534;18.700;2023-02-26T05:03:03;2.70;99.90
25512;DHT22;13414;44.534;18.700;2023-02-26T05:05:30;2.70;99.90
25512;DHT22;13414;44.534;18.700;2023-02-26T05:07:58;2.70;99.90
25512;DHT22;13414;44.534;18.700;2023-02-26T05:10:27;2.60;99.90
25512;DHT22;13414;44.534;18.700;2023-02-26T05:12:54;2.60;99.90
25512;DHT22;13414;44.534;18.700;2023-02-26T05:15:22;2.60;99.90
25512;DHT22;13414;44.534;18.700;2023-02-26T05:17:49;2.60;99.90
25512;DHT22;13414;44.534;18.700;2023-02-26T05:20:18;2.40;99.90
25512;DHT22;13414;44.534;18.700;2023-02-26T05:22:46;2.40;99.90
25512;DHT22;13414;44.534;18.700;2023-02-26T05:25:14;2.40;99.90
25512;DHT22;13414;44.534;18.700;2023-02-26T05:27:43;2.40;99.90
25512;DHT22;13414;44.534;18.700;2023-02-26T05:30:13;2.50;99.90
25512;DHT22;13414;44.534;18.700;2023-02-26T05:32:43;2.60;99.90
25512;DHT22;13414;44.534;18.700;2023-02-26T05:35:11;2.60;99.90
25512;DHT22;13414;44.534;18.700;2023-02-26T05:37:38;2.60;99.90
25512;DHT22;13414;44.534;18.700;2023-02-26T05:40:07;2.70;99.90
25512;DHT22;13414;44.534;18.700;2023-02-26T05:42:36;2.70;99.90
25512;DHT22;13414;44.534;18.700;2023-02-26T05:45:09;2.70;99.90
25512;DHT22;13414;44.534;18.700;2023-02-26T05:47:36;2.70;99.90
25512;DHT22;13414;44.534;18.700;2023-02-26T05:50:05;2.70;99.90
25512;DHT22;13414;44.534;18.700;2023-02-26T05:52:32;2.80;99.90
25512;DHT22;13414;44.534;18.700;2023-02-26T05:55:00;2.80;99.90
25512;DHT22;13414;44.534;18.700;2023-02-26T05:57:28;2.90;99.90
25512;DHT22;13414;44.534;18.700;2023-02-26T05:59:56;2.80;99.90
25512;DHT22;13414;44.534;18.700;2023-02-26T06:02:25;2.80;99.90
25512;DHT22;13414;44.534;18.700;2023-02-26T06:04:52;2.80;99.90
25512;DHT22;13414;44.534;18.700;2023-02-26T06:07:20;2.70;99.90
25512;DHT22;13414;44.534;18.700;2023-02-26T06:09:47;2.70;99.90
25512;DHT22;13414;44.534;18.700;2023-02-26T06:12:15;2.70;99.90
25512;DHT22;13414;44.534;18.700;2023-02-26T06:14:42;2.60;99.90
25512;DHT22;13414;44.534;18.700;2023-02-26T06:17:10;2.60;99.90
25512;DHT22;13414;44.534;18.700;2023-02-26T06:19:39;2.60;99.90
25512;DHT22;13414;44.534;18.700;2023-02-26T06:22:07;2.60;99.90
25512;DHT22;13414;44.534;18.700;2023-02-26T06:24:34;2.50;99.90
25512;DHT22;13414;44.534;18.700;2023-02-26T06:27:01;2.50;99.90
25512;DHT22;13414;44.534;18.700;2023-02-26T06:29:29;2.50;99.90
25512;DHT22;13414;44.534;18.700;2023-02-26T06:31:56;2.60;99.90
25512;DHT22;13414;44.534;18.700;2023-02-26T06:34:24;2.60;99.90
25512;DHT22;13414;44.534;18.700;2023-02-26T06:36:53;2.60;99.90
25512;DHT22;13414;44.534;18.700;2023-02-26T06:39:20;2.60;99.90
25512;DHT22;13414;44.534;18.700;2023-02-26T06:41:48;2.60;99.90
25512;DHT22;13414;44.534;18.700;2023-02-26T06:44:15;2.60;99.90
25512;DHT22;13414;44.534;18.700;2023-02-26T06:46:43;2.70;99.90
25512;DHT22;13414;44.534;18.700;2023-02-26T06:49:10;2.70;99.90
25512;DHT22;13414;44.534;18.700;2023-02-26T06:51:38;2.80;99.90
25512;DHT22;13414;44.534;18.700;2023-02-26T06:54:07;2.80;99.90
25512;DHT22;13414;44.534;18.700;2023-02-26T06:56:34;2.70;99.90
25512;DHT22;13414;44.534;18.700;2023-02-26T06:59:02;2.70;99.90
25512;DHT22;13414;44.534;18.700;2023-02-26T07:01:29;2.70;99.90
25512;DHT22;13414;44.534;18.700;2023-02-26T07:03:57;2.60;99.90
25512;DHT22;13414;44.534;18.700;2023-02-26T07:06:24;2.60;99.90
25512;DHT22;13414;44.534;18.700;2023-02-26T07:08:52;2.60;99.90
25512;DHT22;13414;44.534;18.700;2023-02-26T07:11:21;2.50;99.90
25512;DHT22;13414;44.534;18.700;2023-02-26T07:13:49;2.60;99.90
25512;DHT22;13414;44.534;18.700;2023-02-26T07:16:16;2.70;99.90
25512;DHT22;13414;44.534;18.700;2023-02-26T07:18:44;2.60;99.90
25512;DHT22;13414;44.534;18.700;2023-02-26T07:21:11;2.70;99.90
25512;DHT22;13414;44.534;18.700;2023-02-26T07:23:39;2.80;99.90
25512;DHT22;13414;44.534;18.700;2023-02-26T07:26:06;2.80;99.90
25512;DHT22;13414;44.534;18.700;2023-02-26T07:28:36;2.90;99.90
25512;DHT22;13414;44.534;18.700;2023-02-26T07:31:04;2.80;99.90
25512;DHT22;13414;44.534;18.700;2023-02-26T07:33:31;2.70;99.90
25512;DHT22;13414;44.534;18.700;2023-02-26T07:36:00;2.70;99.90
25512;DHT22;13414;44.534;18.700;2023-02-26T07:38:27;2.80;99.90
25512;DHT22;13414;44.534;18.700;2023-02-26T07:40:56;2.80;99.90
25512;DHT22;13414;44.534;18.700;2023-02-26T07:43:23;2.80;99.90
25512;DHT22;13414;44.534;18.700;2023-02-26T07:45:52;2.90;99.90
25512;DHT22;13414;44.534;18.700;2023-02-26T07:48:20;2.90;99.90
25512;DHT22;13414;44.534;18.700;2023-02-26T07:50:50;2.80;99.90
25512;DHT22;13414;44.534;18.700;2023-02-26T07:53:18;2.90;99.90
25512;DHT22;13414;44.534;18.700;2023-02-26T07:55:45;2.90;99.90
25512;DHT22;13414;44.534;18.700;2023-02-26T07:58:13;3.10;99.90
25512;DHT22;13414;44.534;18.700;2023-02-26T08:00:40;3.10;99.90
25512;DHT22;13414;44.534;18.700;2023-02-26T08:03:09;3.10;99.90
25512;DHT22;13414;44.534;18.700;2023-02-26T08:05:37;3.10;99.90
25512;DHT22;13414;44.534;18.700;2023-02-26T08:08:05;3.20;99.90
25512;DHT22;13414;44.534;18.700;2023-02-26T08:10:33;3.30;99.90
25512;DHT22;13414;44.534;18.700;2023-02-26T08:13:01;3.30;99.90
25512;DHT22;13414;44.534;18.700;2023-02-26T08:15:29;3.40;99.90
25512;DHT22;13414;44.534;18.700;2023-02-26T08:17:56;3.30;99.90
25512;DHT22;13414;44.534;18.700;2023-02-26T08:20:26;3.40;99.90
25512;DHT22;13414;44.534;18.700;2023-02-26T08:22:53;3.50;99.90
25512;DHT22;13414;44.534;18.700;2023-02-26T08:25:21;3.40;99.90
25512;DHT22;13414;44.534;18.700;2023-02-26T08:27:48;3.40;99.90
25512;DHT22;13414;44.534;18.700;2023-02-26T08:30:16;3.40;99.90
25512;DHT22;13414;44.534;18.700;2023-02-26T08:32:44;3.40;99.90
25512;DHT22;13414;44.534;18.700;2023-02-26T08:35:11;3.60;99.90
25512;DHT22;13414;44.534;18.700;2023-02-26T08:37:40;3.70;99.90
25512;DHT22;13414;44.534;18.700;2023-02-26T08:40:09;3.80;99.90
25512;DHT22;13414;44.534;18.700;2023-02-26T08:42:36;3.90;99.90
25512;DHT22;13414;44.534;18.700;2023-02-26T08:45:05;3.90;99.90
25512;DHT22;13414;44.534;18.700;2023-02-26T08:47:32;4.00;99.90
25512;DHT22;13414;44.534;18.700;2023-02-26T08:50:00;4.10;99.90
25512;DHT22;13414;44.534;18.700;2023-02-26T08:52:28;4.10;99.90
25512;DHT22;13414;44.534;18.700;2023-02-26T08:54:57;4.10;99.90
25512;DHT22;13414;44.534;18.700;2023-02-26T08:57:24;4.20;99.90
25512;DHT22;13414;44.534;18.700;2023-02-26T08:59:52;4.20;99.90
25512;DHT22;13414;44.534;18.700;2023-02-26T09:02:19;4.20;99.90
25512;DHT22;13414;44.534;18.700;2023-02-26T09:04:46;4.20;99.90
25512;DHT22;13414;44.534;18.700;2023-02-26T09:07:14;4.30;99.90
25512;DHT22;13414;44.534;18.700;2023-02-26T09:09:41;4.10;99.90
25512;DHT22;13414;44.534;18.700;2023-02-26T09:12:10;3.70;99.90
25512;DHT22;13414;44.534;18.700;2023-02-26T09:14:38;3.70;99.90
25512;DHT22;13414;44.534;18.700;2023-02-26T09:17:06;3.80;99.90
25512;DHT22;13414;44.534;18.700;2023-02-26T09:19:33;3.80;99.90
25512;DHT22;13414;44.534;18.700;2023-02-26T09:22:01;3.90;99.90
25512;DHT22;13414;44.534;18.700;2023-02-26T09:24:29;4.00;99.90
25512;DHT22;13414;44.534;18.700;2023-02-26T09:26:56;3.90;99.90
25512;DHT22;13414;44.534;18.700;2023-02-26T09:29:25;4.10;99.90
25512;DHT22;13414;44.534;18.700;2023-02-26T09:31:53;4.40;99.90
25512;DHT22;13414;44.534;18.700;2023-02-26T09:34:20;4.60;99.90
25512;DHT22;13414;44.534;18.700;2023-02-26T09:36:48;4.70;99.90
25512;DHT22;13414;44.534;18.700;2023-02-26T09:39:15;4.80;99.90
25512;DHT22;13414;44.534;18.700;2023-02-26T09:41:46;4.60;99.90
25512;DHT22;13414;44.534;18.700;2023-02-26T09:44:18;4.70;99.90
25512;DHT22;13414;44.534;18.700;2023-02-26T09:47:01;4.90;99.90
25512;DHT22;13414;44.534;18.700;2023-02-26T09:49:40;4.90;99.90
25512;DHT22;13414;44.534;18.700;2023-02-26T09:52:15;5.00;99.90
25512;DHT22;13414;44.534;18.700;2023-02-26T09:54:47;5.10;99.90
25512;DHT22;13414;44.534;18.700;2023-02-26T09:57:23;5.10;99.90
25512;DHT22;13414;44.534;18.700;2023-02-26T09:59:52;5.30;99.90
25512;DHT22;13414;44.534;18.700;2023-02-26T10:02:30;5.50;99.90
25512;DHT22;13414;44.534;18.700;2023-02-26T10:05:09;5.50;99.90
25512;DHT22;13414;44.534;18.700;2023-02-26T10:07:47;5.50;99.90
25512;DHT22;13414;44.534;18.700;2023-02-26T10:10:22;5.40;99.90
25512;DHT22;13414;44.534;18.700;2023-02-26T10:12:51;5.50;99.90
25512;DHT22;13414;44.534;18.700;2023-02-26T10:15:22;5.60;99.90
25512;DHT22;13414;44.534;18.700;2023-02-26T10:18:01;5.70;99.90
25512;DHT22;13414;44.534;18.700;2023-02-26T10:20:34;5.90;99.90
25512;DHT22;13414;44.534;18.700;2023-02-26T10:23:17;6.00;99.90
25512;DHT22;13414;44.534;18.700;2023-02-26T10:25:48;5.80;99.90
25512;DHT22;13414;44.534;18.700;2023-02-26T10:31:24;5.60;99.90
25512;DHT22;13414;44.534;18.700;2023-02-26T10:34:03;5.80;99.90
25512;DHT22;13414;44.534;18.700;2023-02-26T10:36:42;5.70;99.90
25512;DHT22;13414;44.534;18.700;2023-02-26T10:39:21;5.80;99.90
25512;DHT22;13414;44.534;18.700;2023-02-26T10:41:51;5.70;99.90
25512;DHT22;13414;44.534;18.700;2023-02-26T10:44:26;5.70;99.90
25512;DHT22;13414;44.534;18.700;2023-02-26T10:46:56;5.90;99.90
25512;DHT22;13414;44.534;18.700;2023-02-26T10:49:39;5.90;99.90
25512;DHT22;13414;44.534;18.700;2023-02-26T10:52:13;5.70;99.90
25512;DHT22;13414;44.534;18.700;2023-02-26T10:54:47;5.60;99.90
25512;DHT22;13414;44.534;18.700;2023-02-26T10:57:20;5.40;99.90
25512;DHT22;13414;44.534;18.700;2023-02-26T10:59:49;5.20;99.90
25512;DHT22;13414;44.534;18.700;2023-02-26T11:02:35;5.00;99.90
25512;DHT22;13414;44.534;18.700;2023-02-26T11:05:11;5.10;99.90
25512;DHT22;13414;44.534;18.700;2023-02-26T11:07:40;5.20;99.90
25512;DHT22;13414;44.534;18.700;2023-02-26T11:10:15;5.30;99.90
25512;DHT22;13414;44.534;18.700;2023-02-26T11:12:43;5.40;99.90
25512;DHT22;13414;44.534;18.700;2023-02-26T11:15:17;5.60;99.90
25512;DHT22;13414;44.534;18.700;2023-02-26T11:17:46;5.70;99.90
25512;DHT22;13414;44.534;18.700;2023-02-26T11:20:20;5.90;99.90
25512;DHT22;13414;44.534;18.700;2023-02-26T11:22:53;6.10;99.90
25512;DHT22;13414;44.534;18.700;2023-02-26T11:25:23;6.40;99.90
25512;DHT22;13414;44.534;18.700;2023-02-26T11:27:58;6.40;99.90
25512;DHT22;13414;44.534;18.700;2023-02-26T11:30:30;6.60;99.90
25512;DHT22;13414;44.534;18.700;2023-02-26T11:33:05;6.60;99.90
25512;DHT22;13414;44.534;18.700;2023-02-26T11:35:34;6.60;99.90
25512;DHT22;13414;44.534;18.700;2023-02-26T11:38:02;6.60;99.90
25512;DHT22;13414;44.534;18.700;2023-02-26T11:40:35;6.70;99.90
25512;DHT22;13414;44.534;18.700;2023-02-26T11:43:06;6.80;99.90
25512;DHT22;13414;44.534;18.700;2023-02-26T11:45:35;6.50;99.90
25512;DHT22;13414;44.534;18.700;2023-02-26T11:48:06;6.30;99.90
25512;DHT22;13414;44.534;18.700;2023-02-26T11:50:41;6.40;99.90
25512;DHT22;13414;44.534;18.700;2023-02-26T11:53:16;6.50;99.90
25512;DHT22;13414;44.534;18.700;2023-02-26T11:55:46;6.40;99.90
25512;DHT22;13414;44.534;18.700;2023-02-26T11:58:18;6.40;99.90
25512;DHT22;13414;44.534;18.700;2023-02-26T12:00:47;6.10;99.90
25512;DHT22;13414;44.534;18.700;2023-02-26T12:03:17;6.30;99.90
25512;DHT22;13414;44.534;18.700;2023-02-26T12:05:48;6.20;99.90
25512;DHT22;13414;44.534;18.700;2023-02-26T12:08:20;5.90;99.90
25512;DHT22;13414;44.534;18.700;2023-02-26T12:11:02;5.90;99.90
25512;DHT22;13414;44.534;18.700;2023-02-26T12:13:36;6.00;99.90
25512;DHT22;13414;44.534;18.700;2023-02-26T12:16:10;6.20;99.90
25512;DHT22;13414;44.534;18.700;2023-02-26T12:18:57;6.00;99.90
25512;DHT22;13414;44.534;18.700;2023-02-26T12:24:46;5.60;99.90
25512;DHT22;13414;44.534;18.700;2023-02-26T12:27:23;5.50;99.90
25512;DHT22;13414;44.534;18.700;2023-02-26T12:30:04;5.50;99.90
25512;DHT22;13414;44.534;18.700;2023-02-26T12:32:44;5.60;99.90
25512;DHT22;13414;44.534;18.700;2023-02-26T12:35:35;5.50;99.90
25512;DHT22;13414;44.534;18.700;2023-02-26T12:38:18;5.20;99.90
25512;DHT22;13414;44.534;18.700;2023-02-26T12:41:11;5.00;99.90
25512;DHT22;13414;44.534;18.700;2023-02-26T12:43:46;5.10;99.90
25512;DHT22;13414;44.534;18.700;2023-02-26T12:46:27;5.30;99.90
25512;DHT22;13414;44.534;18.700;2023-02-26T12:49:30;5.50;99.90
25512;DHT22;13414;44.534;18.700;2023-02-26T12:52:33;5.50;99.90
25512;DHT22;13414;44.534;18.700;2023-02-26T12:55:18;5.60;99.90
25512;DHT22;13414;44.534;18.700;2023-02-26T12:58:14;5.40;99.90
25512;DHT22;13414;44.534;18.700;2023-02-26T13:03:50;5.60;99.90
25512;DHT22;13414;44.534;18.700;2023-02-26T13:06:50;5.60;99.90
25512;DHT22;13414;44.534;18.700;2023-02-26T13:09:31;5.40;99.90
25512;DHT22;13414;44.534;18.700;2023-02-26T13:12:10;5.30;99.90
25512;DHT22;13414;44.534;18.700;2023-02-26T13:14:48;5.10;99.90
25512;DHT22;13414;44.534;18.700;2023-02-26T13:17:23;5.00;99.90
25512;DHT22;13414;44.534;18.700;2023-02-26T13:19:55;5.10;99.90
25512;DHT22;13414;44.534;18.700;2023-02-26T13:22:26;5.10;99.90
25512;DHT22;13414;44.534;18.700;2023-02-26T13:24:57;5.10;99.90
25512;DHT22;13414;44.534;18.700;2023-02-26T13:27:32;5.10;99.90
25512;DHT22;13414;44.534;18.700;2023-02-26T13:30:16;5.00;99.90
25512;DHT22;13414;44.534;18.700;2023-02-26T13:32:46;4.90;99.90
25512;DHT22;13414;44.534;18.700;2023-02-26T13:35:21;4.90;99.90
25512;DHT22;13414;44.534;18.700;2023-02-26T13:37:52;5.00;99.90
25512;DHT22;13414;44.534;18.700;2023-02-26T13:40:41;5.00;99.90
25512;DHT22;13414;44.534;18.700;2023-02-26T13:43:22;4.90;99.90
25512;DHT22;13414;44.534;18.700;2023-02-26T13:45:59;4.90;99.90
25512;DHT22;13414;44.534;18.700;2023-02-26T13:48:38;5.00;99.90
25512;DHT22;13414;44.534;18.700;2023-02-26T13:51:12;5.10;99.90
25512;DHT22;13414;44.534;18.700;2023-02-26T13:53:56;5.20;99.90
25512;DHT22;13414;44.534;18.700;2023-02-26T13:59:37;5.30;99.90
25512;DHT22;13414;44.534;18.700;2023-02-26T14:02:34;5.30;99.90
25512;DHT22;13414;44.534;18.700;2023-02-26T14:05:08;5.10;99.90
25512;DHT22;13414;44.534;18.700;2023-02-26T14:07:47;5.20;99.90
25512;DHT22;13414;44.534;18.700;2023-02-26T14:10:22;5.00;99.90
25512;DHT22;13414;44.534;18.700;2023-02-26T14:13:15;4.90;99.90
25512;DHT22;13414;44.534;18.700;2023-02-26T14:15:55;4.90;99.90
25512;DHT22;13414;44.534;18.700;2023-02-26T14:18:31;4.70;99.90
25512;DHT22;13414;44.534;18.700;2023-02-26T14:21:30;4.60;99.90
25512;DHT22;13414;44.534;18.700;2023-02-26T14:24:01;4.80;99.90
25512;DHT22;13414;44.534;18.700;2023-02-26T14:26:32;4.80;99.90
25512;DHT22;13414;44.534;18.700;2023-02-26T14:29:15;4.90;99.90
25512;DHT22;13414;44.534;18.700;2023-02-26T14:31:59;5.00;99.90
25512;DHT22;13414;44.534;18.700;2023-02-26T14:34:33;4.90;99.90
25512;DHT22;13414;44.534;18.700;2023-02-26T14:37:07;4.70;99.90
25512;DHT22;13414;44.534;18.700;2023-02-26T14:39:55;4.50;99.90
25512;DHT22;13414;44.534;18.700;2023-02-26T14:42:58;4.40;99.90
25512;DHT22;13414;44.534;18.700;2023-02-26T14:45:49;4.50;99.90
25512;DHT22;13414;44.534;18.700;2023-02-26T14:48:21;4.50;99.90
25512;DHT22;13414;44.534;18.700;2023-02-26T14:51:06;4.50;99.90
25512;DHT22;13414;44.534;18.700;2023-02-26T14:53:49;4.60;99.90
25512;DHT22;13414;44.534;18.700;2023-02-26T14:56:28;4.60;99.90
25512;DHT22;13414;44.534;18.700;2023-02-26T14:59:08;4.70;99.90
25512;DHT22;13414;44.534;18.700;2023-02-26T15:01:46;4.70;99.90
25512;DHT22;13414;44.534;18.700;2023-02-26T15:05:08;4.60;99.90
25512;DHT22;13414;44.534;18.700;2023-02-26T15:07:54;4.60;99.90
25512;DHT22;13414;44.534;18.700;2023-02-26T15:10:35;4.50;99.90
25512;DHT22;13414;44.534;18.700;2023-02-26T15:13:18;4.50;99.90
25512;DHT22;13414;44.534;18.700;2023-02-26T15:15:55;4.30;99.90
25512;DHT22;13414;44.534;18.700;2023-02-26T15:21:31;4.10;99.90
25512;DHT22;13414;44.534;18.700;2023-02-26T15:24:03;4.10;99.90
25512;DHT22;13414;44.534;18.700;2023-02-26T15:26:34;4.20;99.90
25512;DHT22;13414;44.534;18.700;2023-02-26T15:29:10;4.10;99.90
25512;DHT22;13414;44.534;18.700;2023-02-26T15:31:52;4.00;99.90
25512;DHT22;13414;44.534;18.700;2023-02-26T15:34:21;4.00;99.90
25512;DHT22;13414;44.534;18.700;2023-02-26T15:36:51;4.00;99.90
25512;DHT22;13414;44.534;18.700;2023-02-26T15:39:23;4.10;99.90
25512;DHT22;13414;44.534;18.700;2023-02-26T15:41:52;4.00;99.90
25512;DHT22;13414;44.534;18.700;2023-02-26T15:44:23;4.00;99.90
25512;DHT22;13414;44.534;18.700;2023-02-26T15:47:01;4.00;99.90
25512;DHT22;13414;44.534;18.700;2023-02-26T15:49:38;4.00;99.90
25512;DHT22;13414;44.534;18.700;2023-02-26T15:52:14;4.00;99.90
25512;DHT22;13414;44.534;18.700;2023-02-26T15:54:52;4.10;99.90
25512;DHT22;13414;44.534;18.700;2023-02-26T15:57:22;4.10;99.90
25512;DHT22;13414;44.534;18.700;2023-02-26T15:59:53;4.10;99.90
25512;DHT22;13414;44.534;18.700;2023-02-26T16:02:27;4.00;99.90
25512;DHT22;13414;44.534;18.700;2023-02-26T16:04:57;4.00;99.90
25512;DHT22;13414;44.534;18.700;2023-02-26T16:07:26;4.00;99.90
25512;DHT22;13414;44.534;18.700;2023-02-26T16:09:55;4.00;99.90
25512;DHT22;13414;44.534;18.700;2023-02-26T16:12:25;4.00;99.90
25512;DHT22;13414;44.534;18.700;2023-02-26T16:14:57;4.00;99.90
25512;DHT22;13414;44.534;18.700;2023-02-26T16:17:33;4.00;99.90
25512;DHT22;13414;44.534;18.700;2023-02-26T16:20:02;4.00;99.90
25512;DHT22;13414;44.534;18.700;2023-02-26T16:22:34;3.90;99.90
25512;DHT22;13414;44.534;18.700;2023-02-26T16:25:06;4.00;99.90